Time;durP1;ratioP1;P1;durP2;ratioP2;P2;SDS_P1;SDS_P2;PMS_P1;PMS_P2;Temp;Humidity;BMP_temperature;BMP_pressure;BME280_temperature;BME280_humidity;BME280_pressure;Samples;Min_cycle;Max_cycle;Signal;HPM_P1;HPM_P2
2022/12/30 00:00:30;;;;;;;0.50;0.50;;;;;;;5.16;90.11;98488.31;5064665;28;20061;-67
2022/12/30 00:02:57;;;;;;;0.50;0.50;;;;;;;5.13;90.22;98478.91;5062972;28;20025;-66
2022/12/30 00:05:22;;;;;;;5.68;3.15;;;;;;;5.14;90.56;98480.63;5064674;28;20028;-66
2022/12/30 00:07:47;;;;;;;0.50;0.50;;;;;;;5.14;90.48;98474.63;5063183;28;20380;-65
2022/12/30 00:10:13;;;;;;;0.55;0.55;;;;;;;5.10;90.18;98484.09;5063051;28;20033;-67
2022/12/30 00:34:57;;;;;;;0.50;0.50;;;;;;;4.96;90.88;98482.63;5064239;28;20056;-68
2022/12/30 00:37:23;;;;;;;0.40;0.40;;;;;;;4.93;91.23;98477.53;5064136;28;20017;-67
2022/12/30 00:39:48;;;;;;;0.50;0.50;;;;;;;4.96;91.27;98482.63;5063518;28;20075;-67
2022/12/30 00:44:58;;;;;;;0.50;0.50;;;;;;;4.94;91.57;98479.22;5063890;28;20556;-68
2022/12/30 00:47:23;;;;;;;0.40;0.40;;;;;;;4.88;91.56;98478.47;5063794;28;20088;-68
2022/12/30 00:58:00;;;;;;;0.90;0.90;;;;;;;4.78;91.47;98473.47;5066510;28;20040;-67
2022/12/30 01:00:26;;;;;;;0.40;0.40;;;;;;;4.82;91.86;98485.38;5066333;28;20025;-67
2022/12/30 01:02:51;;;;;;;0.57;0.57;;;;;;;4.83;91.75;98483.69;5065098;28;20021;-67
2022/12/30 01:05:17;;;;;;;0.45;0.45;;;;;;;4.84;91.74;98498.22;5066421;28;20025;-67
2022/12/30 01:07:42;;;;;;;0.50;0.50;;;;;;;4.87;91.64;98492.19;5066432;28;20041;-67
2022/12/30 01:10:10;;;;;;;0.50;0.50;;;;;;;4.90;91.80;98484.44;5066332;28;20024;-67
2022/12/30 01:12:36;;;;;;;0.50;0.50;;;;;;;4.91;91.95;98493.84;5066179;28;20031;-68
2022/12/30 01:15:02;;;;;;;0.50;0.50;;;;;;;4.90;91.44;98485.28;5065845;28;20469;-67
2022/12/30 01:17:30;;;;;;;0.50;0.50;;;;;;;4.98;91.30;98489.44;5066290;28;20493;-67
2022/12/30 01:19:55;;;;;;;0.50;0.50;;;;;;;4.98;91.21;98484.31;5065979;28;20025;-66
2022/12/30 01:22:21;;;;;;;0.50;0.50;;;;;;;5.05;91.47;98501.31;5066163;28;20362;-67
2022/12/30 01:24:47;;;;;;;3.88;3.35;;;;;;;5.06;91.17;98497.91;5066175;28;20508;-66
2022/12/30 01:27:13;;;;;;;0.60;0.60;;;;;;;5.11;91.01;98501.25;5066176;28;20025;-66
2022/12/30 01:29:41;;;;;;;0.50;0.50;;;;;;;5.16;90.89;98501.16;5065873;28;20428;-68
2022/12/30 01:32:09;;;;;;;1.35;1.35;;;;;;;5.10;90.14;98496.97;5065810;28;20501;-67
2022/12/30 01:34:35;;;;;;;0.50;0.50;;;;;;;5.12;90.15;98508.06;5065970;28;20033;-67
2022/12/30 01:37:01;;;;;;;0.50;0.50;;;;;;;5.11;89.56;98506.41;5065953;28;20036;-67
2022/12/30 01:39:27;;;;;;;0.47;0.47;;;;;;;5.10;89.36;98509.81;5064434;28;20024;-66
2022/12/30 01:41:54;;;;;;;6.03;5.55;;;;;;;5.07;89.38;98489.28;5065749;28;20017;-67
2022/12/30 01:44:44;;;;;;;0.40;0.40;;;;;;;5.15;89.51;98505.44;5065726;28;20047;-67
2022/12/30 01:47:14;;;;;;;0.50;0.50;;;;;;;5.12;89.38;98497.78;5065709;28;20071;-67
2022/12/30 01:49:45;;;;;;;0.50;0.50;;;;;;;5.05;88.99;98486.75;5025750;28;1171713;-67
2022/12/30 01:52:12;;;;;;;0.60;0.60;;;;;;;5.08;89.24;98490.97;5066991;28;20033;-66
2022/12/30 01:54:38;;;;;;;0.40;0.40;;;;;;;5.10;88.95;98504.69;5066730;28;20100;-68
2022/12/30 01:57:05;;;;;;;0.50;0.50;;;;;;;5.06;89.04;98500.47;5066709;28;20151;-66
2022/12/30 01:59:31;;;;;;;0.50;0.50;;;;;;;5.01;89.54;98497.97;5066606;28;20039;-65
2022/12/30 02:01:57;;;;;;;0.50;0.50;;;;;;;5.02;90.13;98497.09;5066539;28;20025;-66
2022/12/30 02:04:25;;;;;;;0.50;0.50;;;;;;;5.00;90.31;98498.00;5066663;28;20028;-66
2022/12/30 02:07:28;;;;;;;0.43;0.43;;;;;;;5.04;90.22;98500.50;5066336;28;20083;-66
2022/12/30 02:09:56;;;;;;;0.50;0.50;;;;;;;5.05;90.59;98491.88;5043958;28;20065;-67
2022/12/30 02:12:22;;;;;;;0.50;0.50;;;;;;;5.03;90.73;98495.38;5044106;28;20041;-65
2022/12/30 02:14:49;;;;;;;0.50;0.50;;;;;;;5.05;91.04;98473.88;5027261;28;20029;-66
2022/12/30 02:18:07;;;;;;;0.50;0.50;;;;;;;5.13;91.11;98476.31;5043872;28;20053;-67
2022/12/30 02:20:44;;;;;;;0.50;0.50;;;;;;;5.14;91.31;98480.63;5043935;28;20028;-67
2022/12/30 02:23:37;;;;;;;0.50;0.50;;;;;;;5.12;90.99;98477.22;5043992;28;20029;-67
2022/12/30 02:26:17;;;;;;;0.50;0.50;;;;;;;5.11;91.11;98480.66;5043707;28;20059;-67
2022/12/30 02:29:31;;;;;;;0.50;0.50;;;;;;;5.12;90.89;98479.78;5043755;28;20040;-66
2022/12/30 02:32:33;;;;;;;0.50;0.50;;;;;;;5.07;91.07;98479.88;5043670;28;20039;-69
2022/12/30 02:35:06;;;;;;;0.50;0.50;;;;;;;5.06;90.98;98483.28;5043472;28;20058;-68
2022/12/30 02:37:53;;;;;;;0.50;0.50;;;;;;;5.08;91.04;98465.25;5043499;28;20065;-67
2022/12/30 02:44:36;;;;;;;0.50;0.50;;;;;;;5.07;91.12;98471.28;5043526;28;20025;-68
2022/12/30 02:46:07;;;;;;;0.50;0.50;;;;;;;5.06;90.66;98477.31;5066075;28;20087;-67
2022/12/30 02:48:36;;;;;;;0.50;0.50;;;;;;;5.02;91.18;98471.38;5065466;28;20049;-67
2022/12/30 02:53:48;;;;;;;0.50;0.50;;;;;;;4.99;90.60;98483.41;5066019;28;20241;-67
2022/12/30 02:56:14;;;;;;;0.50;0.50;;;;;;;4.98;90.67;98476.59;5065683;28;20263;-67
2022/12/30 02:58:46;;;;;;;0.47;0.47;;;;;;;4.99;90.94;98480.84;5065588;28;20029;-67
2022/12/30 03:04:26;;;;;;;0.50;0.50;;;;;;;4.95;90.43;98469.78;5065642;28;19973;-64
2022/12/30 03:07:21;;;;;;;0.40;0.40;;;;;;;4.91;90.59;98488.69;5065435;28;20356;-64
2022/12/30 03:13:01;;;;;;;0.50;0.50;;;;;;;4.68;91.62;98466.78;5065501;28;20111;-65
2022/12/30 03:15:41;;;;;;;0.50;0.50;;;;;;;4.63;91.95;98489.13;5064111;28;20049;-67
2022/12/30 03:18:09;;;;;;;5.50;5.07;;;;;;;4.57;92.25;98477.22;5064290;28;20024;-65
2022/12/30 03:20:36;;;;;;;0.50;0.50;;;;;;;4.50;92.78;98488.47;5065400;28;20051;-64
2022/12/30 03:28:36;;;;;;;4.88;2.38;;;;;;;4.39;93.88;98484.34;5065087;28;20055;-65
2022/12/30 03:31:05;;;;;;;0.50;0.50;;;;;;;4.42;94.18;98484.31;5065095;28;20515;-65
2022/12/30 03:33:31;;;;;;;0.70;0.70;;;;;;;4.35;94.27;98469.81;5063702;28;20040;-65
2022/12/30 03:36:08;;;;;;;0.50;0.50;;;;;;;4.35;94.38;98482.66;5064796;28;20025;-66
2022/12/30 03:38:37;;;;;;;0.50;0.50;;;;;;;4.36;94.52;98480.97;5065180;28;20048;-65
2022/12/30 03:41:06;;;;;;;0.50;0.50;;;;;;;4.35;94.65;98495.53;5064839;28;20033;-65
2022/12/30 03:43:33;;;;;;;0.50;0.50;;;;;;;4.33;94.71;98484.41;5064964;28;20031;-64
2022/12/30 03:45:59;;;;;;;0.50;0.50;;;;;;;4.34;94.85;98499.78;5064888;28;20304;-66
2022/12/30 03:48:24;;;;;;;0.50;0.50;;;;;;;4.29;95.10;98477.63;5064388;28;20041;-65
2022/12/30 03:50:49;;;;;;;0.50;0.50;;;;;;;4.37;95.04;98496.34;5064607;28;20098;-65
2022/12/30 03:53:15;;;;;;;1.85;1.77;;;;;;;4.37;95.04;98483.50;5064959;28;20048;-66
2022/12/30 03:55:40;;;;;;;0.50;0.50;;;;;;;4.36;95.18;98489.50;5064563;28;20508;-67
2022/12/30 03:58:06;;;;;;;0.50;0.50;;;;;;;4.37;95.17;98492.94;5064505;28;20032;-67
2022/12/30 04:00:32;;;;;;;0.50;0.50;;;;;;;4.36;95.00;98496.38;5064547;28;20063;-67
2022/12/30 04:02:57;;;;;;;0.50;0.50;;;;;;;4.39;95.17;98502.34;5064198;28;20021;-67
2022/12/30 04:05:23;;;;;;;0.50;0.50;;;;;;;4.42;94.89;98504.00;5064665;28;20067;-67
2022/12/30 04:07:48;;;;;;;0.50;0.50;;;;;;;4.43;94.94;98509.13;5064495;28;20044;-68
2022/12/30 04:10:14;;;;;;;0.80;0.80;;;;;;;4.46;95.20;98518.50;5064369;28;20074;-67
2022/12/30 04:12:39;;;;;;;0.50;0.50;;;;;;;4.46;94.78;98510.78;5064212;28;20020;-68
2022/12/30 04:15:05;;;;;;;0.50;0.50;;;;;;;4.42;94.69;98501.44;5064331;28;20021;-66
2022/12/30 04:17:31;;;;;;;0.50;0.50;;;;;;;4.47;95.04;98510.75;5062732;28;20036;-67
2022/12/30 04:19:56;;;;;;;0.43;0.43;;;;;;;4.45;94.86;98524.50;5064377;28;20036;-67
2022/12/30 04:22:22;;;;;;;0.47;0.47;;;;;;;4.41;94.87;98508.28;5064114;28;20088;-66
2022/12/30 04:24:47;;;;;;;0.40;0.40;;;;;;;4.47;95.01;98522.78;5064103;28;20055;-66
2022/12/30 04:27:13;;;;;;;0.88;0.82;;;;;;;4.46;95.18;98524.50;5062895;28;20464;-66
2022/12/30 04:29:38;;;;;;;0.45;0.45;;;;;;;4.49;95.63;98522.75;5063841;28;20021;-66
2022/12/30 04:32:03;;;;;;;0.50;0.50;;;;;;;4.50;95.38;98534.72;5063966;28;20483;-67
2022/12/30 04:34:29;;;;;;;0.50;0.50;;;;;;;4.51;95.62;98526.13;5063855;28;20046;-67
2022/12/30 04:36:54;;;;;;;0.50;0.50;;;;;;;4.53;95.53;98535.53;5062501;28;20032;-67
2022/12/30 04:39:20;;;;;;;4.35;3.50;;;;;;;4.46;95.42;98534.75;5063805;28;20111;-68
2022/12/30 04:41:47;;;;;;;1.25;1.25;;;;;;;4.54;95.51;98551.78;5063880;28;20031;-67
2022/12/30 04:44:13;;;;;;;0.50;0.50;;;;;;;4.56;95.83;98550.06;5063613;28;20035;-67
2022/12/30 04:46:38;;;;;;;0.40;0.40;;;;;;;4.57;95.50;98550.03;5063787;28;20055;-67
2022/12/30 04:49:04;;;;;;;0.50;0.50;;;;;;;4.62;95.19;98560.25;5063856;28;20065;-68
2022/12/30 04:51:29;;;;;;;0.50;0.50;;;;;;;4.63;95.31;98561.97;5063686;28;20021;-68
2022/12/30 04:53:54;;;;;;;0.50;0.50;;;;;;;4.66;95.19;98577.34;5064158;28;20385;-68
2022/12/30 04:56:20;;;;;;;0.45;0.45;;;;;;;4.70;95.30;98573.84;5062397;28;20048;-68
2022/12/30 04:58:45;;;;;;;0.50;0.50;;;;;;;4.72;95.09;98578.97;5063879;28;20055;-68
2022/12/30 05:01:11;;;;;;;0.50;0.50;;;;;;;4.74;94.73;98576.38;5063623;28;20035;-67
2022/12/30 05:03:36;;;;;;;0.50;0.50;;;;;;;4.74;94.88;98572.09;5063765;28;20047;-67
2022/12/30 05:06:02;;;;;;;1.88;1.77;;;;;;;4.76;95.25;98574.66;5063928;28;20036;-67
2022/12/30 05:08:27;;;;;;;0.40;0.40;;;;;;;4.78;94.90;98576.31;5063813;28;20029;-68
2022/12/30 05:10:52;;;;;;;0.50;0.50;;;;;;;4.79;94.89;98583.13;5063929;28;20016;-70
2022/12/30 05:13:18;;;;;;;0.50;0.50;;;;;;;4.82;94.89;98589.97;5063744;28;20055;-67
2022/12/30 05:15:43;;;;;;;0.40;0.40;;;;;;;4.81;94.75;98601.97;5063553;28;20060;-67
2022/12/30 05:18:10;;;;;;;0.50;0.50;;;;;;;4.83;94.68;98596.81;5062201;28;20032;-67
2022/12/30 05:20:35;;;;;;;0.40;0.40;;;;;;;4.80;94.39;98599.44;5063932;28;20017;-66
2022/12/30 05:23:01;;;;;;;0.50;0.50;;;;;;;4.82;94.30;98616.53;5063433;28;20087;-67
2022/12/30 05:28:10;;;;;;;0.50;0.50;;;;;;;4.82;93.82;98616.53;5063543;28;20048;-67
2022/12/30 05:30:36;;;;;;;1.75;1.60;;;;;;;4.82;93.68;98613.94;5063481;28;20021;-67
2022/12/30 05:33:01;;;;;;;0.50;0.50;;;;;;;4.84;93.81;98613.94;5063127;28;20025;-67
2022/12/30 05:35:27;;;;;;;0.50;0.50;;;;;;;4.86;93.52;98627.63;5062194;28;20032;-67
2022/12/30 05:37:52;;;;;;;0.50;0.50;;;;;;;4.88;93.78;98632.75;5063554;28;20042;-67
2022/12/30 05:40:18;;;;;;;0.50;0.50;;;;;;;4.90;93.53;98634.44;5063891;28;20017;-66
2022/12/30 05:42:43;;;;;;;0.50;0.50;;;;;;;4.90;93.57;98641.28;5067111;28;20392;-66
2022/12/30 05:45:09;;;;;;;0.50;0.50;;;;;;;4.90;93.38;98649.00;5065609;28;20036;-66
2022/12/30 05:47:34;;;;;;;0.43;0.43;;;;;;;4.90;92.90;98657.59;5066794;28;20501;-66
2022/12/30 05:50:00;;;;;;;0.50;0.50;;;;;;;4.88;92.67;98661.03;5066942;28;20049;-67
2022/12/30 05:52:27;;;;;;;0.50;0.50;;;;;;;4.86;92.82;98663.63;5065626;28;20021;-67
2022/12/30 05:54:53;;;;;;;0.50;0.50;;;;;;;4.88;93.13;98674.75;5066819;28;20088;-67
2022/12/30 05:57:18;;;;;;;0.50;0.50;;;;;;;4.87;92.64;98680.78;5066813;28;20020;-67
2022/12/30 05:59:44;;;;;;;1.48;1.40;;;;;;;4.84;93.01;98673.94;5066764;28;20056;-68
2022/12/30 06:02:09;;;;;;;0.50;0.50;;;;;;;4.83;93.13;98677.38;5066656;28;20025;-67
2022/12/30 06:04:35;;;;;;;0.50;0.50;;;;;;;4.82;93.17;98677.41;5065258;28;20084;-66
2022/12/30 06:07:00;;;;;;;0.50;0.50;;;;;;;4.82;92.85;98685.13;5066938;28;20020;-66
2022/12/30 06:09:25;;;;;;;0.50;0.50;;;;;;;4.83;92.89;98703.09;5066683;28;20029;-66
2022/12/30 06:11:51;;;;;;;0.50;0.50;;;;;;;4.82;93.00;98695.41;5066529;28;20100;-66
2022/12/30 06:14:17;;;;;;;0.50;0.50;;;;;;;4.89;93.45;98699.59;5066427;28;20139;-66
2022/12/30 06:16:43;;;;;;;0.50;0.50;;;;;;;4.89;92.96;98706.47;5066296;28;20084;-67
2022/12/30 06:19:08;;;;;;;0.50;0.50;;;;;;;4.90;93.09;98715.88;5066661;28;20025;-67
2022/12/30 06:21:34;;;;;;;0.50;0.50;;;;;;;4.91;92.97;98708.13;5066245;28;20025;-66
2022/12/30 06:24:00;;;;;;;0.50;0.50;;;;;;;4.95;93.25;98719.25;5066295;28;20021;-65
2022/12/30 06:26:26;;;;;;;0.45;0.45;;;;;;;4.98;93.02;98729.50;5066269;28;20099;-66
2022/12/30 06:28:51;;;;;;;0.65;0.65;;;;;;;4.91;93.55;98721.00;5066219;28;20028;-66
2022/12/30 06:31:17;;;;;;;0.50;0.50;;;;;;;4.86;93.13;98721.94;5066184;28;20031;-66
2022/12/30 06:33:43;;;;;;;0.50;0.50;;;;;;;4.82;93.65;98726.25;5066004;28;20031;-65
2022/12/30 06:36:09;;;;;;;0.50;0.50;;;;;;;4.83;93.96;98735.66;5064628;28;20089;-65
2022/12/30 06:38:35;;;;;;;0.50;0.50;;;;;;;4.80;94.01;98741.69;5065987;28;20028;-66
2022/12/30 06:41:00;;;;;;;0.50;0.50;;;;;;;4.78;94.20;98740.84;5065881;28;20025;-66
2022/12/30 06:43:25;;;;;;;0.50;0.50;;;;;;;4.79;94.36;98747.69;5065959;28;20036;-67
2022/12/30 06:45:51;;;;;;;0.50;0.50;;;;;;;4.79;94.15;98752.84;5065966;28;20036;-67
2022/12/30 06:48:16;;;;;;;0.50;0.50;;;;;;;4.76;94.52;98762.31;5065620;28;20108;-67
2022/12/30 06:50:41;;;;;;;0.50;0.50;;;;;;;4.73;94.23;98762.38;5065780;28;20035;-67
2022/12/30 06:53:07;;;;;;;0.40;0.40;;;;;;;4.69;94.40;98758.97;5064466;28;20105;-67
2022/12/30 06:55:33;;;;;;;0.50;0.50;;;;;;;4.61;93.94;98776.19;5065775;28;20024;-67
2022/12/30 06:57:58;;;;;;;0.50;0.50;;;;;;;4.57;94.45;98775.34;5065663;28;20422;-67
2022/12/30 07:00:24;;;;;;;0.50;0.50;;;;;;;4.57;94.75;98783.94;5065693;28;20032;-68
2022/12/30 07:02:49;;;;;;;0.43;0.43;;;;;;;4.64;94.97;98783.84;5064440;28;20032;-68
2022/12/30 07:05:15;;;;;;;0.40;0.40;;;;;;;4.59;94.67;98782.19;5065376;28;20079;-69
2022/12/30 07:07:40;;;;;;;0.40;0.40;;;;;;;4.66;94.82;98795.84;5065581;28;20027;-68
2022/12/30 07:10:06;;;;;;;0.50;0.50;;;;;;;4.70;95.14;98799.22;5065358;28;20039;-68
2022/12/30 07:12:32;;;;;;;0.50;0.50;;;;;;;4.73;95.00;98811.22;5065278;28;20033;-67
2022/12/30 07:14:57;;;;;;;0.43;0.43;;;;;;;4.75;95.16;98822.31;5065098;28;20056;-69
2022/12/30 07:17:23;;;;;;;0.50;0.50;;;;;;;4.74;95.04;98815.47;5065271;28;20017;-68
2022/12/30 07:19:48;;;;;;;0.50;0.50;;;;;;;4.74;94.99;98826.63;5065284;28;20036;-69
2022/12/30 07:22:15;;;;;;;0.40;0.40;;;;;;;4.75;94.91;98824.88;5065195;28;20032;-70
2022/12/30 07:24:41;;;;;;;0.77;0.77;;;;;;;4.75;94.93;98824.88;5064991;28;20025;-69
2022/12/30 07:27:09;;;;;;;0.50;0.50;;;;;;;4.78;94.88;98830.00;5064621;28;20021;-68
2022/12/30 07:29:34;;;;;;;0.60;0.60;;;;;;;4.74;94.62;98830.91;5065055;28;20072;-69
2022/12/30 07:32:00;;;;;;;0.50;0.50;;;;;;;4.69;94.59;98828.38;5064854;28;20045;-68
2022/12/30 07:34:25;;;;;;;0.50;0.50;;;;;;;4.68;94.79;98836.97;5065053;28;20021;-68
2022/12/30 07:36:50;;;;;;;0.50;0.50;;;;;;;4.66;94.88;98848.97;5064786;28;20059;-67
2022/12/30 07:39:16;;;;;;;0.50;0.50;;;;;;;4.67;95.23;98864.38;5064824;28;20070;-67
2022/12/30 07:41:41;;;;;;;0.50;0.50;;;;;;;4.71;95.27;98872.94;5064996;28;20032;-68
2022/12/30 07:44:07;;;;;;;0.50;0.50;;;;;;;4.71;95.30;98873.75;5064593;28;20021;-68
2022/12/30 07:46:32;;;;;;;0.50;0.50;;;;;;;4.77;95.29;98887.44;5064798;28;20021;-68
2022/12/30 07:48:57;;;;;;;0.50;0.50;;;;;;;4.80;95.38;98892.53;5064594;28;20530;-68
2022/12/30 07:51:23;;;;;;;0.50;0.50;;;;;;;4.81;95.57;98899.38;5064459;28;20451;-68
2022/12/30 07:53:48;;;;;;;7.07;2.90;;;;;;;4.86;95.69;98907.91;5064710;28;20025;-66
2022/12/30 07:56:14;;;;;;;0.60;0.60;;;;;;;4.89;95.62;98910.47;5064652;28;20235;-70
2022/12/30 07:58:40;;;;;;;0.50;0.50;;;;;;;4.93;95.34;98922.44;5064547;28;20021;-69
2022/12/30 08:01:09;;;;;;;0.40;0.40;;;;;;;5.00;95.40;98917.22;5064655;28;20040;-69
2022/12/30 08:03:35;;;;;;;0.50;0.50;;;;;;;5.01;95.10;98924.94;5064016;28;20021;-68
2022/12/30 08:06:06;;;;;;;0.50;0.50;;;;;;;5.07;95.09;98931.72;5064348;28;20108;-69
2022/12/30 08:08:33;;;;;;;0.60;0.60;;;;;;;5.10;94.82;98936.00;5064508;28;20040;-69
2022/12/30 08:10:59;;;;;;;0.40;0.40;;;;;;;5.15;94.89;98936.78;5064368;28;20021;-67
2022/12/30 08:13:24;;;;;;;0.40;0.40;;;;;;;5.15;94.82;98937.66;5064533;28;20024;-68
2022/12/30 08:15:50;;;;;;;0.50;0.50;;;;;;;5.19;94.25;98948.78;5062757;28;20028;-67
2022/12/30 08:18:15;;;;;;;0.50;0.50;;;;;;;5.21;94.26;98950.47;5064226;28;20036;-69
2022/12/30 08:20:41;;;;;;;0.50;0.50;;;;;;;5.23;94.04;98962.44;5063886;28;20029;-69
2022/12/30 08:23:06;;;;;;;0.50;0.50;;;;;;;5.24;93.78;98961.59;5063854;28;20392;-69
2022/12/30 08:25:33;;;;;;;1.23;1.23;;;;;;;5.25;93.16;98965.88;5063995;28;20021;-69
2022/12/30 08:27:58;;;;;;;0.40;0.40;;;;;;;5.06;93.07;98932.59;5064110;28;20021;-68
2022/12/30 08:30:24;;;;;;;0.93;0.93;;;;;;;5.30;92.43;98969.25;5064149;28;20025;-69
2022/12/30 08:32:49;;;;;;;0.50;0.50;;;;;;;5.33;92.54;98979.50;5063751;28;20085;-68
2022/12/30 08:35:14;;;;;;;0.95;0.95;;;;;;;5.40;92.04;98980.31;5063872;28;20138;-68
2022/12/30 08:37:41;;;;;;;0.50;0.50;;;;;;;5.42;92.14;98979.41;5063914;28;20121;-68
2022/12/30 08:40:07;;;;;;;0.50;0.50;;;;;;;5.42;92.30;98979.41;5063852;28;20126;-69
2022/12/30 08:42:35;;;;;;;0.50;0.50;;;;;;;5.44;91.98;98990.56;5063914;28;20021;-69
2022/12/30 08:45:00;;;;;;;0.47;0.47;;;;;;;5.49;91.65;98990.50;5063926;28;20107;-68
2022/12/30 08:47:25;;;;;;;0.40;0.40;;;;;;;5.46;91.56;98993.13;5063928;28;20021;-68
2022/12/30 08:49:51;;;;;;;0.50;0.50;;;;;;;5.45;91.41;99017.13;5063680;28;20054;-68
2022/12/30 08:52:16;;;;;;;0.50;0.50;;;;;;;5.47;91.03;99023.13;5063755;28;20081;-68
2022/12/30 08:54:42;;;;;;;0.50;0.50;;;;;;;5.43;90.70;99027.44;5063417;28;20025;-66
2022/12/30 08:57:09;;;;;;;0.40;0.40;;;;;;;5.49;90.79;99035.97;5063761;28;20025;-69
2022/12/30 08:59:34;;;;;;;0.50;0.50;;;;;;;5.52;90.64;99036.81;5063681;28;20127;-68
2022/12/30 09:01:59;;;;;;;0.50;0.50;;;;;;;5.50;90.29;99029.97;5063542;28;20033;-67
2022/12/30 09:04:25;;;;;;;0.50;0.50;;;;;;;5.61;90.24;99047.91;5062173;28;20021;-67
2022/12/30 09:06:50;;;;;;;0.40;0.40;;;;;;;5.58;90.12;99053.91;5063663;28;20024;-67
2022/12/30 09:09:16;;;;;;;0.50;0.50;;;;;;;5.55;88.64;99039.34;5063484;28;20036;-69
2022/12/30 09:11:43;;;;;;;0.50;0.50;;;;;;;5.70;89.52;99065.81;5063386;28;20036;-69
2022/12/30 09:14:10;;;;;;;1.13;1.13;;;;;;;5.75;88.72;99073.50;5063525;28;20040;-67
2022/12/30 09:16:36;;;;;;;0.43;0.43;;;;;;;5.78;88.58;99066.56;5066211;28;20017;-68
2022/12/30 09:19:01;;;;;;;0.50;0.50;;;;;;;5.85;88.34;99061.38;5067424;28;20029;-68
2022/12/30 09:21:27;;;;;;;0.50;0.50;;;;;;;5.82;87.77;99077.72;5067481;28;20028;-68
2022/12/30 09:23:52;;;;;;;0.50;0.50;;;;;;;5.89;87.93;99074.22;5067705;28;20028;-68
2022/12/30 09:26:21;;;;;;;0.50;0.50;;;;;;;6.11;89.02;99079.16;5067151;28;20115;-68
2022/12/30 09:28:46;;;;;;;0.50;0.50;;;;;;;6.37;88.82;99078.00;5067800;28;20056;-70
2022/12/30 09:31:12;;;;;;;0.50;0.50;;;;;;;6.61;88.02;99075.97;5066446;28;20025;-69
2022/12/30 09:33:37;;;;;;;14.35;5.30;;;;;;;6.75;87.19;99085.22;5067312;28;20029;-68
2022/12/30 09:36:04;;;;;;;0.50;0.50;;;;;;;6.85;86.23;99073.91;5067207;28;20082;-69
2022/12/30 09:38:30;;;;;;;0.57;0.57;;;;;;;6.90;85.66;99077.25;5067311;28;20021;-67
2022/12/30 09:41:01;;;;;;;0.65;0.63;;;;;;;6.89;85.16;99095.34;5067301;28;20044;-68
2022/12/30 09:43:47;;;;;;;0.60;0.60;;;;;;;6.91;84.45;99103.91;5067206;28;20037;-66
2022/12/30 09:46:28;;;;;;;0.50;0.50;;;;;;;7.02;84.96;99102.03;5067217;28;20021;-67
2022/12/30 09:49:36;;;;;;;1.15;1.15;;;;;;;7.48;84.09;99106.47;5067008;28;20043;-67
2022/12/30 09:52:14;;;;;;;0.60;0.60;;;;;;;8.09;81.12;99119.19;5064249;28;20037;-66
2022/12/30 09:54:45;;;;;;;0.90;0.90;;;;;;;8.47;78.59;99133.97;5066986;28;20112;-67
2022/12/30 09:57:30;;;;;;;0.50;0.50;;;;;;;8.47;78.03;99126.22;5066899;28;20354;-69
2022/12/30 10:00:02;;;;;;;0.40;0.40;;;;;;;8.70;77.17;99133.56;5066938;28;20021;-68
2022/12/30 10:02:33;;;;;;;1.13;1.13;;;;;;;8.76;76.84;99158.44;5066807;28;20052;-68
2022/12/30 10:04:59;;;;;;;0.50;0.50;;;;;;;8.63;76.88;99169.03;5066693;28;20033;-67
2022/12/30 10:07:40;;;;;;;0.40;0.40;;;;;;;8.91;76.83;99177.97;5066844;28;20179;-67
2022/12/30 10:10:23;;;;;;;0.40;0.40;;;;;;;9.03;75.31;99161.31;5066715;28;20028;-67
2022/12/30 10:13:18;;;;;;;13.15;6.47;;;;;;;8.85;74.49;99173.75;5066542;28;20028;-67
2022/12/30 10:15:53;;;;;;;5.28;1.50;;;;;;;8.59;74.15;99176.91;5065024;28;20047;-67
2022/12/30 10:18:18;;;;;;;0.50;0.50;;;;;;;8.45;74.72;99190.91;5065179;28;20028;-68
2022/12/30 10:20:50;;;;;;;0.50;0.50;;;;;;;8.54;75.24;99193.38;5066755;28;20043;-68
2022/12/30 10:23:57;;;;;;;0.77;0.77;;;;;;;8.61;74.72;99199.25;5066495;28;20028;-68
2022/12/30 10:26:26;;;;;;;1.70;1.60;;;;;;;8.65;75.36;99200.06;5062991;28;20037;-68
2022/12/30 10:29:04;;;;;;;0.50;0.50;;;;;;;8.56;75.74;99201.09;5066531;28;20028;-68
2022/12/30 10:31:34;;;;;;;0.50;0.50;;;;;;;8.40;75.99;99205.69;5066560;28;20025;-67
2022/12/30 10:34:09;;;;;;;0.50;0.50;;;;;;;8.21;74.86;99202.59;5066206;28;20031;-71
2022/12/30 10:36:48;;;;;;;0.40;0.40;;;;;;;7.92;75.47;99204.81;5066211;28;20416;-67
2022/12/30 10:39:19;;;;;;;6.30;3.25;;;;;;;7.71;75.86;99208.59;5064759;28;20088;-68
2022/12/30 10:42:18;;;;;;;0.40;0.40;;;;;;;7.49;75.61;99209.75;5066412;28;20053;-68
2022/12/30 10:45:10;;;;;;;0.50;0.50;;;;;;;7.27;78.25;99211.78;5066083;28;20021;-68
2022/12/30 10:48:01;;;;;;;0.40;0.40;;;;;;;7.06;77.97;99222.41;5066066;28;20539;-67
2022/12/30 10:50:43;;;;;;;0.50;0.50;;;;;;;6.85;78.76;99213.22;5065912;28;20056;-67
2022/12/30 10:53:14;;;;;;;0.60;0.60;;;;;;;6.76;80.04;99219.34;5065330;28;20500;-67
2022/12/30 10:55:56;;;;;;;0.60;0.60;;;;;;;6.58;79.66;99225.56;5065887;28;20025;-69
2022/12/30 10:58:24;;;;;;;0.60;0.60;;;;;;;6.60;80.68;99246.19;5064406;28;20092;-67
2022/12/30 11:00:50;;;;;;;0.50;0.50;;;;;;;6.54;80.81;99255.69;5065207;28;20059;-67
2022/12/30 11:03:34;;;;;;;0.40;0.40;;;;;;;6.49;80.09;99254.00;5065452;28;20025;-68
2022/12/30 11:06:23;;;;;;;0.47;0.47;;;;;;;6.38;80.42;99265.31;5065687;28;20021;-67
2022/12/30 11:08:49;;;;;;;0.50;0.50;;;;;;;6.17;80.35;99256.03;5065298;28;20028;-67
2022/12/30 11:11:15;;;;;;;0.50;0.50;;;;;;;6.10;80.57;99256.97;5065412;28;20029;-68
2022/12/30 11:16:28;;;;;;;0.55;0.55;;;;;;;5.86;80.69;99262.28;5065650;28;20028;-68
2022/12/30 11:18:57;;;;;;;0.43;0.43;;;;;;;5.72;80.22;99267.50;5065490;28;20081;-66
2022/12/30 11:21:29;;;;;;;0.50;0.50;;;;;;;5.66;81.38;99265.84;5065586;28;20183;-68
2022/12/30 11:23:57;;;;;;;0.60;0.60;;;;;;;5.59;81.48;99256.47;5065284;28;20029;-66
2022/12/30 11:26:26;;;;;;;0.50;0.50;;;;;;;5.62;82.33;99264.16;5065177;28;20108;-69
2022/12/30 11:28:58;;;;;;;0.50;0.50;;;;;;;5.56;81.65;99267.63;5065109;28;20081;-68
2022/12/30 11:31:41;;;;;;;0.50;0.50;;;;;;;5.53;82.08;99277.94;5065437;28;20052;-67
2022/12/30 11:34:16;;;;;;;0.50;0.50;;;;;;;5.50;81.96;99270.22;5063929;28;20021;-67
2022/12/30 11:36:42;;;;;;;0.50;0.50;;;;;;;5.45;82.46;99266.81;5064985;28;20035;-67
2022/12/30 11:39:07;;;;;;;0.50;0.50;;;;;;;5.41;82.82;99271.16;5064476;28;20076;-66
2022/12/30 11:41:44;;;;;;;0.50;0.50;;;;;;;5.35;82.91;99276.34;5063718;28;20032;-66
2022/12/30 11:44:13;;;;;;;0.47;0.47;;;;;;;5.32;83.47;99263.47;5064916;28;20051;-66
2022/12/30 11:46:43;;;;;;;0.50;0.50;;;;;;;5.26;83.76;99263.50;5064797;28;20423;-67
2022/12/30 11:49:27;;;;;;;0.50;0.50;;;;;;;5.24;83.43;99272.97;5064182;28;20076;-67
2022/12/30 11:51:57;;;;;;;0.45;0.45;;;;;;;5.17;83.70;99261.84;5064522;28;20045;-67
2022/12/30 11:54:25;;;;;;;0.50;0.50;;;;;;;5.18;83.76;99266.09;5064910;28;20472;-67
2022/12/30 11:56:51;;;;;;;0.50;0.50;;;;;;;5.17;84.01;99269.56;5064537;28;20060;-66
2022/12/30 11:59:21;;;;;;;0.50;0.50;;;;;;;5.17;84.38;99259.25;5064596;28;20025;-67
2022/12/30 12:01:53;;;;;;;3.83;3.50;;;;;;;5.15;85.00;99266.13;5064479;28;20029;-67
2022/12/30 12:04:35;;;;;;;2.08;1.98;;;;;;;5.16;85.07;99260.97;5064369;28;20028;-67
2022/12/30 12:07:02;;;;;;;0.60;0.60;;;;;;;5.18;85.36;99261.81;5064376;28;20412;-68
2022/12/30 12:09:42;;;;;;;0.60;0.60;;;;;;;5.15;84.90;99271.25;5064483;28;20081;-67
2022/12/30 12:12:13;;;;;;;0.50;0.50;;;;;;;5.15;85.54;99273.84;5064554;28;20032;-67
2022/12/30 12:15:03;;;;;;;0.50;0.50;;;;;;;5.15;85.50;99273.84;5064058;28;20037;-68
2022/12/30 12:17:44;;;;;;;0.50;0.50;;;;;;;5.12;85.56;99272.16;5064028;28;20067;-68
2022/12/30 12:20:19;;;;;;;0.55;0.55;;;;;;;5.03;85.45;99256.75;5064720;28;20024;-68
2022/12/30 12:22:54;;;;;;;0.50;0.50;;;;;;;5.01;85.66;99253.31;5064311;28;20021;-68
2022/12/30 12:25:23;;;;;;;0.45;0.45;;;;;;;5.00;85.77;99255.03;5064344;28;20055;-68
2022/12/30 12:27:50;;;;;;;0.50;0.50;;;;;;;5.05;86.26;99253.31;5063914;28;20029;-68
2022/12/30 12:30:16;;;;;;;0.50;0.50;;;;;;;5.02;86.71;99253.31;5064123;28;20031;-68
2022/12/30 12:33:00;;;;;;;0.50;0.50;;;;;;;5.06;86.52;99238.72;5064009;28;20028;-69
2022/12/30 12:35:55;;;;;;;0.50;0.50;;;;;;;5.08;86.93;99236.97;5064058;28;20033;-69
2022/12/30 12:38:46;;;;;;;0.50;0.50;;;;;;;5.06;87.22;99233.59;5064221;28;20035;-66
2022/12/30 12:41:25;;;;;;;0.57;0.57;;;;;;;5.08;87.79;99227.56;5041136;28;20092;-68
2022/12/30 12:44:00;;;;;;;0.50;0.50;;;;;;;5.13;87.60;99230.09;5041515;28;20393;-65
2022/12/30 12:46:44;;;;;;;0.50;0.50;;;;;;;5.17;87.55;99225.81;5041638;28;20033;-67
2022/12/30 12:49:37;;;;;;;0.45;0.45;;;;;;;5.22;87.38;99229.22;5041645;28;20042;-66